createdAt,value
2023-01-01T00:01:45.962Z,69.87
2023-01-01T00:04:14.618Z,69.84
2023-01-01T00:06:42.599Z,70.63
2023-01-01T00:09:27.854Z,70.43
2023-01-01T00:11:54.387Z,69.85
2023-01-01T00:14:20.842Z,70.55
2023-01-01T00:16:47.253Z,70.88
2023-01-01T00:19:13.680Z,70.46
2023-01-01T00:21:40.279Z,71.18
2023-01-01T00:24:07.082Z,70.80
2023-01-01T00:26:35.492Z,71.63
2023-01-01T00:29:02.807Z,69.62
2023-01-01T00:31:29.262Z,69.76
2023-01-01T00:33:56.672Z,70.29
2023-01-01T00:36:25.032Z,70.44
2023-01-01T00:38:53.167Z,69.55
2023-01-01T00:41:20.233Z,70.05
2023-01-01T00:43:46.676Z,70.03
2023-01-01T00:46:13.944Z,70.05
2023-01-01T00:48:40.534Z,70.73
2023-01-01T00:51:07.556Z,70.35
2023-01-01T00:53:34.156Z,70.71
2023-01-01T00:56:00.585Z,70.39
2023-01-01T00:58:27.082Z,70.32
2023-01-01T01:00:54.000Z,69.84
2023-01-01T01:03:29.553Z,69.78
2023-01-01T01:05:57.494Z,70.74
2023-01-01T01:08:30.412Z,69.23
2023-01-01T01:11:07.395Z,69.30
2023-01-01T01:13:34.235Z,69.21
2023-01-01T01:16:01.032Z,69.70
2023-01-01T01:18:27.560Z,68.61
2023-01-01T01:20:54.804Z,69.21
2023-01-01T01:23:21.492Z,69.00
2023-01-01T01:25:48.970Z,69.61
2023-01-01T01:28:15.627Z,69.53
2023-01-01T01:30:42.261Z,69.33
2023-01-01T01:33:09.090Z,70.33
2023-01-01T01:35:35.824Z,71.61
2023-01-01T01:38:02.634Z,71.65
2023-01-01T01:40:29.214Z,72.28
2023-01-01T01:42:55.572Z,71.14
2023-01-01T01:45:22.027Z,72.31
2023-01-01T01:47:59.025Z,71.50
2023-01-01T01:50:32.800Z,71.58
2023-01-01T01:53:16.195Z,71.50
2023-01-01T01:55:50.885Z,71.34
2023-01-01T01:58:17.410Z,71.72
2023-01-01T02:00:43.820Z,71.68
2023-01-01T02:03:17.426Z,71.27
2023-01-01T02:05:44.673Z,71.43
2023-01-01T02:08:14.574Z,71.10
2023-01-01T02:10:41.128Z,70.61
2023-01-01T02:13:07.676Z,71.17
2023-01-01T02:15:44.441Z,70.49
2023-01-01T02:18:14.257Z,70.64
2023-01-01T02:21:03.439Z,70.78
2023-01-01T02:23:41.597Z,71.57
2023-01-01T02:26:24.261Z,71.07
2023-01-01T02:29:07.517Z,71.41
2023-01-01T02:31:40.218Z,71.04
2023-01-01T02:34:11.495Z,70.57
2023-01-01T02:36:44.469Z,70.40
2023-01-01T02:39:11.872Z,70.14
2023-01-01T02:41:41.725Z,70.19
2023-01-01T02:44:08.189Z,69.75
2023-01-01T02:46:36.165Z,69.78
2023-01-01T02:49:09.656Z,69.86
2023-01-01T02:51:49.016Z,70.10
2023-01-01T02:54:18.492Z,69.92
2023-01-01T02:56:51.726Z,69.91
2023-01-01T02:59:59.616Z,69.84
2023-01-01T03:02:32.767Z,70.03
2023-01-01T03:05:01.937Z,69.85
2023-01-01T03:07:53.005Z,69.26
2023-01-01T03:10:25.792Z,69.67
2023-01-01T03:13:08.285Z,70.51
2023-01-01T03:15:51.237Z,69.81
2023-01-01T03:18:24.564Z,70.04
2023-01-01T03:20:54.685Z,69.63
2023-01-01T03:23:30.438Z,69.52
2023-01-01T03:26:03.028Z,69.59
2023-01-01T03:28:35.582Z,69.84
2023-01-01T03:31:03.017Z,70.43
2023-01-01T03:33:44.325Z,69.68
2023-01-01T03:36:21.557Z,69.36
2023-01-01T03:38:58.205Z,69.43
2023-01-01T03:41:35.367Z,69.16
2023-01-01T03:44:20.432Z,70.02
2023-01-01T03:46:47.191Z,69.69
2023-01-01T03:49:15.118Z,69.94
2023-01-01T03:52:00.353Z,69.59
2023-01-01T03:54:45.422Z,69.72
2023-01-01T03:57:49.541Z,70.23
2023-01-01T04:00:20.024Z,70.37
2023-01-01T04:02:56.121Z,70.59
2023-01-01T04:05:24.485Z,71.42
2023-01-01T04:07:53.596Z,72.57
2023-01-01T04:10:20.435Z,73.64
2023-01-01T04:12:48.480Z,74.94
2023-01-01T04:15:19.897Z,75.55
2023-01-01T04:17:46.747Z,75.47
2023-01-01T04:20:14.322Z,75.02
2023-01-01T04:22:40.951Z,74.51
2023-01-01T04:25:08.374Z,75.14
2023-01-01T04:27:34.908Z,75.78
2023-01-01T04:30:01.472Z,75.82
2023-01-01T04:32:30.498Z,77.23
2023-01-01T04:34:56.895Z,78.38
2023-01-01T04:37:28.461Z,78.52
2023-01-01T04:39:59.877Z,78.92
2023-01-01T04:42:26.255Z,79.32
2023-01-01T04:44:52.728Z,80.32
2023-01-01T04:47:19.099Z,80.14
2023-01-01T04:49:45.459Z,80.48
2023-01-01T04:52:11.811Z,80.77
2023-01-01T04:54:38.240Z,81.22
2023-01-01T04:57:06.715Z,81.12
2023-01-01T04:59:33.064Z,80.87
2023-01-01T05:01:59.556Z,81.15
2023-01-01T05:04:26.028Z,80.69
2023-01-01T05:06:52.497Z,80.73
2023-01-01T05:09:18.860Z,80.77
2023-01-01T05:11:46.460Z,80.36
2023-01-01T05:14:12.866Z,80.82
2023-01-01T05:16:40.603Z,80.54
2023-01-01T05:19:08.160Z,80.36
2023-01-01T05:21:39.019Z,80.02
2023-01-01T05:24:08.275Z,79.80
2023-01-01T05:26:40.504Z,80.02
2023-01-01T05:29:13.681Z,78.77
2023-01-01T05:31:42.368Z,79.08
2023-01-01T05:36:38.654Z,77.89
2023-01-01T05:39:09.025Z,77.81
2023-01-01T05:41:38.738Z,77.75
2023-01-01T05:44:07.228Z,77.68
2023-01-01T05:46:34.048Z,77.12
2023-01-01T05:49:00.976Z,77.39
2023-01-01T05:51:29.359Z,77.24
2023-01-01T05:53:56.366Z,76.97
2023-01-01T05:56:23.157Z,77.08
2023-01-01T05:58:49.902Z,76.00
2023-01-01T06:01:17.803Z,75.44
2023-01-01T06:03:44.727Z,75.44
2023-01-01T06:06:13.935Z,75.04
2023-01-01T06:08:40.963Z,73.78
2023-01-01T06:11:11.105Z,74.25
2023-01-01T06:13:38.877Z,74.29
2023-01-01T06:16:05.690Z,74.19
2023-01-01T06:18:34.789Z,74.58
2023-01-01T06:21:05.474Z,72.75
2023-01-01T06:23:31.857Z,73.65
2023-01-01T06:26:14.130Z,73.76
2023-01-01T06:28:44.157Z,73.06
2023-01-01T06:31:12.929Z,72.42
2023-01-01T06:33:40.077Z,72.95
2023-01-01T06:36:09.636Z,73.01
2023-01-01T06:38:39.664Z,72.43
2023-01-01T06:41:10.462Z,71.50
2023-01-01T06:43:36.918Z,71.77
2023-01-01T06:46:26.008Z,70.94
2023-01-01T06:48:58.141Z,71.37
2023-01-01T06:51:32.447Z,71.50
2023-01-01T06:54:00.036Z,71.71
2023-01-01T06:56:27.204Z,70.93
2023-01-01T06:58:53.585Z,69.91
2023-01-01T07:01:25.794Z,71.46
2023-01-01T07:03:54.446Z,70.95
2023-01-01T07:06:21.902Z,70.66
2023-01-01T07:08:48.749Z,71.01
2023-01-01T07:11:15.264Z,71.02
2023-01-01T07:13:41.871Z,70.58
2023-01-01T07:16:12.635Z,70.81
2023-01-01T07:18:40.521Z,71.01
2023-01-01T07:21:28.271Z,70.02
2023-01-01T07:23:58.911Z,70.51
2023-01-01T07:26:26.581Z,70.82
2023-01-01T07:28:59.618Z,70.41
2023-01-01T07:31:33.753Z,70.66
2023-01-01T07:34:02.203Z,70.36
2023-01-01T07:36:31.661Z,71.18
2023-01-01T07:39:00.304Z,71.44
2023-01-01T07:41:37.394Z,71.19
2023-01-01T07:44:04.772Z,71.39
2023-01-01T07:46:31.352Z,71.38
2023-01-01T07:48:58.912Z,71.39
2023-01-01T07:51:25.442Z,71.86
2023-01-01T07:53:52.129Z,71.85
2023-01-01T07:56:18.777Z,71.93
2023-01-01T07:58:45.226Z,72.73
2023-01-01T08:01:13.576Z,72.22
2023-01-01T08:03:40.149Z,72.72
2023-01-01T08:06:12.112Z,72.80
2023-01-01T08:08:38.949Z,72.78
2023-01-01T08:11:05.931Z,72.32
2023-01-01T08:13:32.354Z,72.70
2023-01-01T08:15:59.172Z,71.69
2023-01-01T08:18:25.798Z,71.39
2023-01-01T08:20:52.287Z,71.71
2023-01-01T08:23:18.665Z,72.04
2023-01-01T08:25:45.022Z,71.53
2023-01-01T08:28:11.402Z,71.90
2023-01-01T08:30:39.944Z,71.67
2023-01-01T08:33:06.300Z,72.04
2023-01-01T08:35:42.525Z,72.47
2023-01-01T08:38:11.596Z,73.03
2023-01-01T08:40:39.197Z,72.30
2023-01-01T08:43:05.635Z,73.55
2023-01-01T08:45:32.038Z,72.82
2023-01-01T08:47:58.462Z,73.45
2023-01-01T08:50:26.302Z,73.38
2023-01-01T08:52:52.692Z,73.42
2023-01-01T08:55:19.134Z,73.42
2023-01-01T08:57:45.501Z,73.79
2023-01-01T09:00:13.585Z,73.95
2023-01-01T09:02:40.109Z,73.72
2023-01-01T09:05:07.213Z,74.06
2023-01-01T09:07:33.725Z,74.55
2023-01-01T09:10:00.119Z,74.43
2023-01-01T09:12:27.643Z,73.96
2023-01-01T09:14:54.013Z,74.59
2023-01-01T09:17:20.380Z,74.55
2023-01-01T09:19:46.750Z,74.53
2023-01-01T09:22:13.505Z,74.38
2023-01-01T09:24:40.950Z,74.31
2023-01-01T09:27:07.355Z,74.73
2023-01-01T09:29:33.839Z,74.48
2023-01-01T09:32:00.421Z,74.53
2023-01-01T09:34:26.890Z,74.41
2023-01-01T09:36:53.274Z,74.59
2023-01-01T09:39:19.637Z,74.40
2023-01-01T09:42:07.590Z,74.60
2023-01-01T09:44:53.344Z,74.73
2023-01-01T09:47:42.919Z,74.40
2023-01-01T09:50:39.994Z,74.46
2023-01-01T09:53:13.859Z,74.54
2023-01-01T09:55:52.661Z,74.40
2023-01-01T09:58:26.440Z,74.34
2023-01-01T10:00:55.908Z,74.42
2023-01-01T10:03:52.882Z,74.62
2023-01-01T10:06:24.478Z,73.99
2023-01-01T10:09:04.996Z,74.11
2023-01-01T10:11:52.726Z,74.09
2023-01-01T10:14:25.134Z,74.07
2023-01-01T10:16:55.450Z,74.55
2023-01-01T10:19:39.966Z,74.87
2023-01-01T10:22:16.818Z,74.70
2023-01-01T10:24:48.643Z,75.12
2023-01-01T10:27:44.260Z,75.31
2023-01-01T10:30:20.384Z,75.73
2023-01-01T10:32:52.273Z,76.17
2023-01-01T10:35:31.358Z,76.52
2023-01-01T10:38:02.369Z,75.94
2023-01-01T10:40:30.608Z,76.11
2023-01-01T10:42:59.207Z,76.77
2023-01-01T10:45:36.644Z,76.45
2023-01-01T10:48:15.250Z,76.25
2023-01-01T10:50:54.646Z,76.10
2023-01-01T10:53:49.383Z,75.36
2023-01-01T10:56:21.506Z,75.08
2023-01-01T10:58:50.854Z,75.01
2023-01-01T11:01:28.575Z,74.79
2023-01-01T11:03:59.489Z,75.30
2023-01-01T11:06:36.329Z,75.78
2023-01-01T11:09:07.022Z,75.97
2023-01-01T11:11:45.796Z,76.62
2023-01-01T11:14:21.803Z,76.47
2023-01-01T11:16:49.424Z,76.76
2023-01-01T11:19:28.768Z,77.11
2023-01-01T11:21:55.528Z,77.37
2023-01-01T11:24:30.312Z,77.76
2023-01-01T11:27:22.892Z,77.59
2023-01-01T11:29:51.460Z,77.66
2023-01-01T11:32:23.969Z,78.21
2023-01-01T11:35:00.363Z,78.13
2023-01-01T11:37:30.238Z,79.04
2023-01-01T11:39:58.465Z,79.09
2023-01-01T11:42:36.835Z,79.32
2023-01-01T11:45:09.685Z,79.21
2023-01-01T11:47:40.696Z,79.42
2023-01-01T11:50:38.070Z,79.29
2023-01-01T11:53:18.384Z,79.51
2023-01-01T11:56:10.190Z,79.87
2023-01-01T11:58:36.501Z,80.14
2023-01-01T12:01:24.704Z,80.24
2023-01-01T12:04:15.479Z,80.20
2023-01-01T12:06:57.519Z,80.26
2023-01-01T12:09:46.409Z,80.32
2023-01-01T12:12:20.926Z,80.71
2023-01-01T12:14:59.220Z,80.45
2023-01-01T12:17:36.621Z,80.48
2023-01-01T12:20:16.451Z,80.21
2023-01-01T12:22:42.950Z,80.28
2023-01-01T12:25:13.991Z,79.58
2023-01-01T12:28:00.789Z,79.65
2023-01-01T12:30:51.229Z,79.85
2023-01-01T12:33:27.697Z,80.10
2023-01-01T12:36:11.545Z,80.02
2023-01-01T12:39:22.923Z,80.32
2023-01-01T12:41:56.285Z,80.24
2023-01-01T12:45:07.539Z,79.56
2023-01-01T12:47:49.760Z,79.95
2023-01-01T12:50:38.150Z,79.53
2023-01-01T12:53:38.403Z,79.20
2023-01-01T12:56:16.223Z,78.92
2023-01-01T12:58:54.588Z,78.88
2023-01-01T13:01:29.893Z,78.80
2023-01-01T13:04:02.239Z,78.75
2023-01-01T13:06:40.489Z,78.70
2023-01-01T13:09:30.466Z,79.08
2023-01-01T13:12:00.413Z,78.42
2023-01-01T13:14:27.172Z,78.17
2023-01-01T13:16:57.925Z,78.62
2023-01-01T13:19:25.780Z,78.14
2023-01-01T13:21:52.323Z,77.49
2023-01-01T13:24:24.868Z,77.69
2023-01-01T13:26:52.734Z,77.41
2023-01-01T13:29:19.009Z,78.14
2023-01-01T13:31:48.425Z,77.87
2023-01-01T13:34:30.203Z,77.63
2023-01-01T13:37:14.945Z,77.47
2023-01-01T13:39:57.760Z,77.54
2023-01-01T13:42:51.717Z,77.40
2023-01-01T13:48:49.410Z,77.42
2023-01-01T13:52:03.415Z,77.73
2023-01-01T13:54:56.313Z,77.12
2023-01-01T13:57:43.562Z,77.17
2023-01-01T14:00:22.779Z,77.23
2023-01-01T14:03:07.936Z,76.97
2023-01-01T14:05:39.307Z,77.38
2023-01-01T14:08:11.532Z,77.53
2023-01-01T14:10:39.423Z,78.09
2023-01-01T14:13:05.738Z,78.09
2023-01-01T14:15:34.169Z,77.96
2023-01-01T14:18:04.541Z,78.30
2023-01-01T14:20:40.889Z,78.18
2023-01-01T14:23:11.670Z,78.25
2023-01-01T14:25:41.331Z,78.20
2023-01-01T14:28:17.847Z,78.54
2023-01-01T14:30:44.569Z,78.71
2023-01-01T14:33:21.904Z,78.74
2023-01-01T14:35:53.655Z,79.17
2023-01-01T14:38:34.123Z,78.92
2023-01-01T14:41:21.662Z,78.86
2023-01-01T14:43:50.545Z,79.35
2023-01-01T14:46:20.119Z,79.04
2023-01-01T14:48:49.633Z,79.92
2023-01-01T14:51:20.793Z,79.36
2023-01-01T14:53:48.498Z,79.58
2023-01-01T14:56:23.703Z,79.80
2023-01-01T14:58:50.432Z,79.70
2023-01-01T15:01:23.474Z,80.48
2023-01-01T15:04:01.843Z,80.36
2023-01-01T15:06:29.423Z,80.66
2023-01-01T15:08:56.502Z,81.05
2023-01-01T15:11:28.552Z,80.55
2023-01-01T15:14:00.263Z,81.41
2023-01-01T15:16:28.102Z,81.62
2023-01-01T15:18:57.698Z,81.30
2023-01-01T15:21:35.561Z,81.45
2023-01-01T15:24:20.477Z,81.58
2023-01-01T15:26:51.456Z,81.80
2023-01-01T15:29:32.091Z,82.29
2023-01-01T15:32:02.575Z,82.27
2023-01-01T15:34:52.576Z,82.11
2023-01-01T15:37:31.089Z,82.55
2023-01-01T15:39:59.757Z,82.34
2023-01-01T15:42:32.590Z,82.46
2023-01-01T15:45:17.231Z,82.75
2023-01-01T15:47:44.099Z,83.07
2023-01-01T15:50:19.695Z,83.00
2023-01-01T15:52:55.234Z,83.14
2023-01-01T15:55:22.427Z,82.88
2023-01-01T15:57:50.877Z,83.14
2023-01-01T16:00:22.952Z,83.25
2023-01-01T16:02:57.100Z,83.54
2023-01-01T16:05:26.300Z,83.19
2023-01-01T16:08:01.825Z,83.33
2023-01-01T16:10:28.702Z,83.03
2023-01-01T16:12:55.194Z,83.19
2023-01-01T16:15:21.575Z,83.91
2023-01-01T16:17:47.963Z,83.75
2023-01-01T16:20:19.928Z,83.41
2023-01-01T16:22:49.225Z,83.48
2023-01-01T16:25:17.817Z,83.52
2023-01-01T16:27:44.348Z,83.17
2023-01-01T16:30:11.988Z,83.37
2023-01-01T16:32:38.879Z,83.25
2023-01-01T16:35:11.765Z,83.51
2023-01-01T16:37:38.880Z,83.00
2023-01-01T16:40:06.401Z,83.38
2023-01-01T16:42:32.781Z,83.35
2023-01-01T16:44:59.248Z,83.39
2023-01-01T16:47:26.698Z,82.99
2023-01-01T16:49:53.084Z,83.16
2023-01-01T16:52:21.835Z,83.53
2023-01-01T16:54:48.247Z,83.46
2023-01-01T16:57:14.646Z,83.42
2023-01-01T16:59:41.014Z,83.46
2023-01-01T17:02:11.073Z,83.48
2023-01-01T17:04:37.620Z,83.48
2023-01-01T17:07:03.994Z,83.26
2023-01-01T17:09:32.804Z,83.35
2023-01-01T17:12:00.335Z,83.68
2023-01-01T17:14:26.722Z,83.77
2023-01-01T17:16:55.286Z,83.24
2023-01-01T17:19:23.347Z,83.25
2023-01-01T17:21:50.119Z,83.33
2023-01-01T17:24:21.739Z,83.17
2023-01-01T17:26:53.071Z,83.18
2023-01-01T17:29:23.440Z,83.51
2023-01-01T17:31:50.430Z,83.60
2023-01-01T17:34:17.221Z,83.68
2023-01-01T17:36:44.807Z,84.24
2023-01-01T17:39:15.076Z,84.58
2023-01-01T17:41:42.944Z,84.71
2023-01-01T17:44:09.786Z,85.12
2023-01-01T17:46:36.220Z,85.38
2023-01-01T17:49:10.185Z,85.64
2023-01-01T17:51:37.072Z,86.10
2023-01-01T17:54:04.649Z,86.24
2023-01-01T17:56:33.318Z,86.50
2023-01-01T17:58:59.734Z,86.60
2023-01-01T18:01:31.316Z,87.54
2023-01-01T18:04:06.834Z,87.44
2023-01-01T18:06:41.107Z,87.70
2023-01-01T18:09:11.738Z,87.54
2023-01-01T18:11:38.606Z,87.78
2023-01-01T18:14:08.426Z,88.30
2023-01-01T18:16:37.571Z,88.36
2023-01-01T18:19:05.366Z,88.62
2023-01-01T18:21:33.268Z,89.29
2023-01-01T18:24:00.419Z,89.56
2023-01-01T18:26:31.011Z,89.76
2023-01-01T18:29:01.933Z,89.85
2023-01-01T18:31:34.731Z,90.03
2023-01-01T18:34:03.311Z,90.46
2023-01-01T18:36:31.701Z,90.46
2023-01-01T18:39:22.165Z,90.62
2023-01-01T18:41:48.515Z,90.88
2023-01-01T18:44:26.504Z,91.40
2023-01-01T18:46:58.189Z,91.63
2023-01-01T18:49:27.957Z,92.05
2023-01-01T18:51:57.008Z,91.88
2023-01-01T18:54:24.610Z,92.18
2023-01-01T18:57:00.623Z,92.87
2023-01-01T18:59:26.973Z,92.58
2023-01-01T19:01:53.562Z,92.92
2023-01-01T19:04:20.114Z,92.70
2023-01-01T19:06:46.951Z,93.07
2023-01-01T19:09:23.275Z,93.13
2023-01-01T19:11:54.548Z,93.05
2023-01-01T19:14:25.610Z,93.31
2023-01-01T19:17:12.694Z,93.24
2023-01-01T19:19:42.539Z,93.80
2023-01-01T19:22:16.821Z,93.72
2023-01-01T19:24:44.778Z,94.11
2023-01-01T19:27:17.472Z,94.01
2023-01-01T19:29:46.645Z,94.45
2023-01-01T19:32:22.205Z,94.27
2023-01-01T19:34:48.578Z,94.29
2023-01-01T19:37:14.996Z,94.55
2023-01-01T19:39:43.794Z,94.55
2023-01-01T19:42:11.350Z,94.86
2023-01-01T19:44:40.061Z,94.71
2023-01-01T19:47:07.679Z,95.02
2023-01-01T19:49:34.068Z,95.19
2023-01-01T19:52:00.454Z,95.39
2023-01-01T19:54:26.922Z,95.21
2023-01-01T19:56:54.585Z,95.24
2023-01-01T19:59:21.084Z,95.45
2023-01-01T20:02:03.273Z,95.26
2023-01-01T20:04:33.990Z,95.19
2023-01-01T20:07:02.896Z,95.48
2023-01-01T20:09:29.356Z,95.16
2023-01-01T20:11:55.717Z,95.61
2023-01-01T20:14:22.083Z,95.35
2023-01-01T20:16:53.300Z,95.55
2023-01-01T20:19:20.138Z,95.86
2023-01-01T20:22:05.174Z,95.68
2023-01-01T20:24:31.592Z,95.87
2023-01-01T20:26:57.970Z,95.51
2023-01-01T20:29:24.517Z,95.50
2023-01-01T20:31:53.063Z,95.90
2023-01-01T20:34:19.621Z,96.01
2023-01-01T20:37:07.739Z,95.99
2023-01-01T20:39:34.277Z,95.88
2023-01-01T20:42:00.735Z,96.14
2023-01-01T20:44:27.135Z,95.85
2023-01-01T20:46:53.840Z,96.07
2023-01-01T20:49:21.087Z,96.45
2023-01-01T20:51:52.937Z,96.17
2023-01-01T20:54:20.779Z,96.62
2023-01-01T20:56:47.762Z,96.44
2023-01-01T21:02:02.574Z,96.69
2023-01-01T21:04:33.238Z,96.68
2023-01-01T21:07:02.441Z,96.44
2023-01-01T21:09:28.822Z,96.93
2023-01-01T21:12:23.999Z,96.28
2023-01-01T21:14:54.177Z,96.81
2023-01-01T21:17:23.045Z,96.79
2023-01-01T21:19:55.972Z,96.49
2023-01-01T21:22:27.343Z,96.48
2023-01-01T21:24:55.440Z,96.76
2023-01-01T21:27:33.791Z,96.61
2023-01-01T21:30:00.777Z,96.74
2023-01-01T21:32:39.699Z,96.90
2023-01-01T21:35:51.695Z,96.70
2023-01-01T21:38:31.368Z,96.76
2023-01-01T21:40:59.561Z,97.15
2023-01-01T21:43:29.458Z,96.95
2023-01-01T21:46:02.279Z,97.07
2023-01-01T21:48:31.425Z,97.02
2023-01-01T21:50:58.772Z,97.29
2023-01-01T21:53:36.986Z,97.42
2023-01-01T21:56:30.673Z,96.75
2023-01-01T21:59:28.067Z,97.31
2023-01-01T22:02:09.910Z,97.12
2023-01-01T22:04:44.102Z,97.17
2023-01-01T22:10:34.241Z,97.20
2023-01-01T22:13:01.042Z,97.23
2023-01-01T22:15:39.309Z,96.94
2023-01-01T22:18:27.998Z,97.53
2023-01-01T22:21:02.630Z,97.58
2023-01-01T22:23:37.189Z,97.13
2023-01-01T22:26:14.484Z,97.52
2023-01-01T22:28:44.657Z,97.63
2023-01-01T22:31:18.238Z,97.51
2023-01-01T22:33:47.339Z,97.28
2023-01-01T22:36:22.283Z,97.60
2023-01-01T22:38:58.483Z,97.54
2023-01-01T22:41:24.991Z,97.59
2023-01-01T22:44:03.560Z,97.23
2023-01-01T22:46:35.826Z,97.32
2023-01-01T22:49:14.760Z,97.45
2023-01-01T22:51:43.299Z,97.47
2023-01-01T22:54:12.066Z,97.66
2023-01-01T22:56:38.445Z,97.20
2023-01-01T22:59:04.804Z,97.30
2023-01-01T23:01:31.338Z,97.30
2023-01-01T23:04:08.898Z,97.50
2023-01-01T23:06:39.399Z,97.17
2023-01-01T23:09:06.321Z,97.43
2023-01-01T23:11:32.758Z,97.55
2023-01-01T23:14:17.831Z,97.64
2023-01-01T23:16:52.017Z,97.54
2023-01-01T23:19:18.353Z,97.53
2023-01-01T23:21:45.311Z,97.42
2023-01-01T23:24:15.332Z,97.58
2023-01-01T23:26:42.693Z,97.55
2023-01-01T23:29:11.249Z,97.58
2023-01-01T23:31:39.205Z,97.79
2023-01-01T23:34:06.172Z,97.46
2023-01-01T23:36:33.816Z,97.80
2023-01-01T23:39:08.303Z,97.85
2023-01-01T23:41:34.903Z,97.87
2023-01-01T23:44:01.251Z,97.45
2023-01-01T23:46:28.813Z,97.99
2023-01-01T23:48:55.336Z,97.98
2023-01-01T23:51:22.818Z,97.45
2023-01-01T23:53:52.359Z,97.78
2023-01-01T23:56:23.905Z,97.74
2023-01-01T23:58:53.527Z,97.81
